Main page
METAR-TAF:

METAR-TAF

Airports :

Dundee Airport

Dundee, Scotland

latitude: 56-27N, longitude: 003-01W, elevation: 4 m

Current weather observation

The report was made 1 hour and 57 minutes ago, at 20:20 UTC
Wind 3 kt from the Northwest
Temperature -1°C
Humidity 93%
Pressure 996 hPa
Visibility 10 km or more
Few clouds at a height of 2500 ft

METAR: EGPN 222020Z 32003KT 9999 FEW025 M01/M02 Q0996

Time: 22:17 (22:17 UTC)

Forecast

The report was made 5 hours and 22 minutes ago, at 16:55 UTC
Forecast valid from 22 at 18 UTC to 22 at 21 UTC
Wind 6 kt from the West
Visibility 10 km or more
Few clouds at a height of 1500 ft

TAF: EGPN 221655Z 2218/2221 28006KT 9999 FEW015

Weather observations and forecasts of more than 4000 airports (METAR and TAF reports).

The available stations are represented by yellow and red dots on the map.

Hover mouse over dot to see the name of the station.

Then click to see weather observations and forecasts.

To change the map : click on the green buttons with a black cross to zoom in, on the green button with a dash to zoom out, or on the green arrows for adjacent maps.


METAR-TAF: